Reed Station, Pennsylvania
Current Conditions -  °F | °C
As of 4:53 AM on Sunday 26 Oct 2014 (Local Time) from KSEG Reporting Station
Clear Clear  
Wind Chill: 55°   Ceiling: Unl
Heat Index: 55°   Visibility: 10mi
Dew Point: 33°   Wind: 6mph
Humidity: 43%   Direction: 300°WNW
Pressure: 29.69"   Gusts: NA
Location:  40.8354°N, 76.6402°W
Report Text: KSEG 260853Z AUTO 30005KT 10SM CLR 13/01 A2969 RMK AO2 SLP052 T01280006 53018
Loading
Personal Weather Stations






























Interactive Weather Map
Tropical Storm Tracking
New forecast layout! Learn more

10-Day Weather Forecast

Advertisements
Track Severe Weather on mobile